Time;durP1;ratioP1;P1;durP2;ratioP2;P2;SDS_P1;SDS_P2;PMS_P1;PMS_P2;Temp;Humidity;BMP_temperature;BMP_pressure;BME280_temperature;BME280_humidity;BME280_pressure;Samples;Min_cycle;Max_cycle;Signal;HPM_P1;HPM_P2
2022/03/12 00:00:01;;;;;;;120.18;108.75;;;9.50;39.80;;;;;;4998543;28;20559;-80
2022/03/12 00:02:31;;;;;;;118.28;106.88;;;9.50;39.60;;;;;;4982621;28;20082;-80
2022/03/12 00:04:58;;;;;;;117.85;106.85;;;9.50;39.40;;;;;;4998357;28;20058;-80
2022/03/12 00:07:27;;;;;;;118.10;107.20;;;9.50;39.60;;;;;;4998167;28;20055;-80
2022/03/12 00:09:55;;;;;;;118.93;108.03;;;9.50;39.60;;;;;;4998306;28;20505;-80
2022/03/12 00:12:22;;;;;;;119.00;107.95;;;9.50;39.30;;;;;;4998170;28;20444;-80
2022/03/12 00:14:50;;;;;;;118.70;107.30;;;9.40;39.20;;;;;;4998627;28;20073;-80
2022/03/12 00:17:18;;;;;;;119.45;107.85;;;9.40;39.80;;;;;;4997635;28;20054;-80
2022/03/12 00:19:45;;;;;;;117.80;106.75;;;9.40;39.90;;;;;;4998460;28;20082;-80
2022/03/12 00:22:13;;;;;;;119.97;108.30;;;9.40;39.10;;;;;;5015991;28;20463;-80
2022/03/12 00:24:42;;;;;;;118.60;107.15;;;9.30;39.40;;;;;;4982397;28;20058;-80
2022/03/12 00:27:10;;;;;;;118.78;107.38;;;9.30;39.40;;;;;;4998027;28;20061;-80
2022/03/12 00:29:38;;;;;;;119.50;107.90;;;9.30;39.90;;;;;;4997875;28;20050;-80
2022/03/12 00:32:07;;;;;;;117.30;106.20;;;9.30;40.10;;;;;;4998324;28;20060;-80
2022/03/12 00:34:34;;;;;;;117.28;106.18;;;9.30;40.10;;;;;;4998284;28;20133;-80
2022/03/12 00:37:01;;;;;;;120.72;109.45;;;9.40;40.60;;;;;;4997809;28;20178;-80
2022/03/12 00:39:28;;;;;;;119.85;108.18;;;9.50;40.40;;;;;;4981989;28;20081;-80
2022/03/12 00:41:57;;;;;;;120.03;108.72;;;9.50;40.10;;;;;;4997650;28;20146;-80
2022/03/12 00:44:24;;;;;;;121.78;110.00;;;9.50;40.10;;;;;;4997619;28;20158;-80
2022/03/12 00:46:51;;;;;;;120.40;108.90;;;9.50;40.20;;;;;;4996905;28;20054;-80
2022/03/12 00:49:18;;;;;;;121.75;109.95;;;9.50;39.90;;;;;;4981310;28;20137;-79
2022/03/12 00:51:48;;;;;;;117.38;106.30;;;9.50;39.60;;;;;;4997155;28;20531;-80
2022/03/12 00:54:15;;;;;;;117.57;106.47;;;9.40;39.40;;;;;;4997385;28;20050;-80
2022/03/12 00:56:42;;;;;;;119.65;108.15;;;9.40;39.90;;;;;;4996459;28;20055;-80
2022/03/12 00:59:10;;;;;;;118.47;107.18;;;9.40;39.70;;;;;;4997134;28;20058;-80
2022/03/12 01:01:37;;;;;;;117.72;106.53;;;9.40;40.10;;;;;;4997694;28;20082;-80
2022/03/12 01:04:05;;;;;;;118.00;106.72;;;9.40;39.30;;;;;;4997739;28;20051;-80
2022/03/12 01:06:34;;;;;;;118.97;107.43;;;9.30;39.50;;;;;;4997350;28;20046;-80
2022/03/12 01:09:01;;;;;;;119.25;107.65;;;9.30;38.90;;;;;;4981223;28;20051;-80
2022/03/12 01:11:28;;;;;;;117.45;106.03;;;9.20;39.20;;;;;;4997622;28;20058;-80
2022/03/12 01:13:55;;;;;;;119.20;107.70;;;9.20;39.40;;;;;;4997384;28;20058;-80
2022/03/12 01:16:24;;;;;;;119.90;108.22;;;9.10;39.00;;;;;;4981125;28;20596;-80
2022/03/12 01:18:51;;;;;;;119.28;107.70;;;9.10;39.00;;;;;;4996786;28;20504;-80
2022/03/12 01:21:20;;;;;;;119.43;108.10;;;9.10;39.30;;;;;;5015444;28;20528;-80
2022/03/12 01:23:48;;;;;;;119.35;107.60;;;9.00;38.90;;;;;;4997310;28;20050;-80
2022/03/12 01:26:15;;;;;;;118.40;106.90;;;8.90;39.10;;;;;;4997299;28;20050;-80
2022/03/12 01:28:44;;;;;;;118.47;107.13;;;8.90;39.40;;;;;;4980776;28;20050;-80
2022/03/12 01:31:11;;;;;;;117.50;106.32;;;8.90;39.40;;;;;;4996825;28;20549;-80
2022/03/12 01:33:40;;;;;;;118.90;107.47;;;8.80;39.30;;;;;;4980925;28;20141;-80
2022/03/12 01:36:07;;;;;;;118.47;107.18;;;8.80;39.70;;;;;;4997090;28;20051;-80
2022/03/12 01:38:36;;;;;;;118.65;107.05;;;8.90;40.10;;;;;;4996824;28;20061;-80
2022/03/12 01:41:06;;;;;;;119.03;107.45;;;8.90;40.60;;;;;;4997056;28;20061;-80
2022/03/12 01:43:37;;;;;;;118.25;106.95;;;9.00;40.70;;;;;;5014395;28;20065;-80
2022/03/12 01:46:09;;;;;;;119.78;108.10;;;9.00;40.60;;;;;;4997281;28;20129;-80
2022/03/12 01:48:41;;;;;;;120.75;108.95;;;9.10;40.00;;;;;;4996709;28;20050;-80
2022/03/12 01:51:08;;;;;;;119.38;107.72;;;9.10;40.50;;;;;;5014352;28;20058;-80
2022/03/12 01:53:36;;;;;;;120.32;108.47;;;9.10;39.80;;;;;;5014920;28;20137;-80
2022/03/12 01:56:03;;;;;;;119.88;108.30;;;9.10;39.60;;;;;;5013933;28;20058;-80
2022/03/12 01:58:30;;;;;;;121.35;109.35;;;9.00;40.00;;;;;;4996154;28;20538;-80
2022/03/12 02:00:58;;;;;;;120.70;109.20;;;9.00;39.90;;;;;;4997008;28;20060;-80
2022/03/12 02:03:29;;;;;;;119.72;108.15;;;9.00;40.10;;;;;;4996693;28;20544;-80
2022/03/12 02:05:57;;;;;;;119.03;107.75;;;9.00;39.90;;;;;;4980552;28;20054;-80
2022/03/12 02:08:28;;;;;;;120.63;108.82;;;9.00;39.80;;;;;;5013682;28;20511;-80
2022/03/12 02:10:57;;;;;;;118.85;107.38;;;8.90;39.40;;;;;;5014541;28;20056;-80
2022/03/12 02:13:29;;;;;;;120.10;108.30;;;8.90;39.60;;;;;;4996259;28;20500;-80
2022/03/12 02:16:06;;;;;;;120.35;108.72;;;8.90;39.80;;;;;;5014279;28;20077;-80
2022/03/12 02:18:34;;;;;;;121.88;110.32;;;8.90;39.90;;;;;;4979481;28;20531;-80
2022/03/12 02:21:02;;;;;;;120.78;109.10;;;8.90;40.10;;;;;;4996655;28;20171;-80
2022/03/12 02:23:29;;;;;;;121.15;109.53;;;8.90;40.20;;;;;;4996427;28;20051;-80
2022/03/12 02:26:03;;;;;;;119.85;108.47;;;8.90;39.80;;;;;;4996450;28;20050;-80
2022/03/12 02:28:30;;;;;;;122.00;110.18;;;8.90;40.00;;;;;;4996442;28;20422;-80
2022/03/12 02:30:58;;;;;;;122.68;110.88;;;8.90;40.20;;;;;;4996095;28;20109;-80
2022/03/12 02:33:28;;;;;;;119.75;108.20;;;8.90;40.20;;;;;;4996348;28;20050;-80
2022/03/12 02:35:56;;;;;;;118.55;106.95;;;8.90;40.30;;;;;;4996233;28;20051;-80
2022/03/12 02:38:25;;;;;;;117.88;106.57;;;9.00;40.80;;;;;;4996210;28;20042;-80
2022/03/12 02:40:54;;;;;;;120.93;109.50;;;9.00;40.40;;;;;;4996209;28;20109;-80
2022/03/12 02:43:26;;;;;;;121.68;110.15;;;9.00;40.30;;;;;;4996166;28;20058;-80
2022/03/12 02:45:57;;;;;;;121.75;110.35;;;9.00;40.10;;;;;;4979725;28;20524;-80
2022/03/12 02:48:24;;;;;;;120.28;108.78;;;9.00;40.80;;;;;;4996130;28;20050;-80
2022/03/12 02:50:52;;;;;;;117.63;106.47;;;9.00;41.30;;;;;;4996021;28;20065;-80
2022/03/12 02:53:19;;;;;;;118.00;106.70;;;9.00;41.10;;;;;;4995878;28;20069;-80
2022/03/12 02:55:47;;;;;;;117.85;106.55;;;9.10;40.80;;;;;;4995171;28;20050;-80
2022/03/12 02:58:16;;;;;;;118.97;107.53;;;9.00;39.80;;;;;;4995641;28;20145;-80
2022/03/12 03:00:45;;;;;;;118.25;107.05;;;9.00;39.80;;;;;;5012480;28;20138;-80
2022/03/12 03:03:12;;;;;;;118.93;107.57;;;8.90;40.20;;;;;;4996017;28;20054;-80
2022/03/12 03:05:46;;;;;;;118.32;107.03;;;8.90;39.90;;;;;;4995965;28;20055;-80
2022/03/12 03:08:18;;;;;;;118.10;106.63;;;8.90;40.30;;;;;;4996603;28;20104;-80
2022/03/12 03:10:47;;;;;;;117.25;105.97;;;8.90;40.60;;;;;;4999186;28;20112;-80
2022/03/12 03:13:32;;;;;;;117.60;106.20;;;8.90;40.50;;;;;;4998821;28;20084;-80
2022/03/12 03:16:04;;;;;;;115.75;104.85;;;8.90;40.50;;;;;;4999237;28;20109;-80
2022/03/12 03:18:32;;;;;;;116.65;105.45;;;8.90;40.30;;;;;;4999278;28;20050;-80
2022/03/12 03:21:01;;;;;;;116.45;105.43;;;8.80;40.10;;;;;;4999042;28;20054;-80
2022/03/12 03:23:31;;;;;;;116.35;105.35;;;8.80;40.30;;;;;;4999170;28;20054;-80
2022/03/12 03:26:01;;;;;;;116.80;105.68;;;8.80;41.00;;;;;;4982860;28;20130;-80
2022/03/12 03:28:29;;;;;;;117.53;106.35;;;8.80;40.30;;;;;;4982574;28;20053;-80
2022/03/12 03:30:56;;;;;;;117.72;106.55;;;8.70;39.80;;;;;;4999067;28;20050;-80
2022/03/12 03:33:27;;;;;;;117.68;106.22;;;8.70;40.20;;;;;;4982530;28;20046;-80
2022/03/12 03:35:55;;;;;;;118.45;107.28;;;8.60;39.80;;;;;;4998947;28;20062;-80
2022/03/12 03:38:22;;;;;;;117.72;106.45;;;8.60;39.80;;;;;;4998601;28;20046;-80
2022/03/12 03:40:49;;;;;;;118.32;107.03;;;8.50;40.10;;;;;;4998655;28;20129;-80
2022/03/12 03:43:18;;;;;;;116.05;104.88;;;8.50;39.80;;;;;;4998743;28;20054;-80
2022/03/12 03:45:47;;;;;;;117.07;105.95;;;8.40;39.70;;;;;;4998556;28;20129;-80
2022/03/12 03:48:17;;;;;;;118.88;107.65;;;8.30;39.70;;;;;;4998424;28;21044;-79
2022/03/12 03:50:47;;;;;;;117.63;106.05;;;8.20;39.90;;;;;;4998554;28;20065;-79
2022/03/12 03:53:17;;;;;;;118.80;107.20;;;8.20;40.10;;;;;;4998683;28;20058;-80
2022/03/12 03:55:44;;;;;;;133.15;120.95;;;8.10;40.20;;;;;;4982201;28;20133;-80
2022/03/12 03:58:13;;;;;;;120.72;109.30;;;8.10;40.10;;;;;;4998242;28;20990;-80
2022/03/12 04:00:41;;;;;;;117.03;105.68;;;8.10;40.30;;;;;;4982271;28;20129;-80
2022/03/12 04:03:09;;;;;;;116.85;105.55;;;8.10;40.50;;;;;;4998819;28;20738;-80
2022/03/12 04:05:37;;;;;;;117.93;106.50;;;8.10;40.40;;;;;;4998456;28;20757;-80
2022/03/12 04:08:07;;;;;;;115.65;104.50;;;8.10;40.40;;;;;;4998316;28;20043;-80
2022/03/12 04:10:35;;;;;;;117.38;106.07;;;8.10;40.80;;;;;;4997835;28;20062;-80
2022/03/12 04:13:03;;;;;;;116.38;105.00;;;8.10;40.80;;;;;;4998143;28;20097;-80
2022/03/12 04:15:30;;;;;;;116.30;104.97;;;8.10;41.00;;;;;;5016134;28;20062;-80
2022/03/12 04:17:58;;;;;;;117.18;105.90;;;8.20;40.70;;;;;;4998203;28;20054;-80
2022/03/12 04:20:26;;;;;;;117.53;106.20;;;8.10;40.50;;;;;;4997479;28;20585;-80
2022/03/12 04:22:55;;;;;;;116.72;105.45;;;8.10;40.60;;;;;;4998538;28;20061;-80
2022/03/12 04:25:24;;;;;;;118.00;106.60;;;8.10;40.70;;;;;;4998240;28;20077;-80
2022/03/12 04:27:51;;;;;;;116.85;105.53;;;8.10;41.10;;;;;;5015786;28;20060;-80
2022/03/12 04:30:19;;;;;;;117.25;106.00;;;8.10;41.20;;;;;;4981903;28;20050;-80
2022/03/12 04:32:46;;;;;;;118.25;106.85;;;8.10;40.90;;;;;;4997598;28;20042;-80
2022/03/12 04:35:13;;;;;;;117.82;105.57;;;8.10;41.00;;;;;;4998035;28;20050;-80
2022/03/12 04:37:40;;;;;;;118.15;106.72;;;8.20;41.30;;;;;;4997682;28;20061;-80
2022/03/12 04:40:13;;;;;;;117.60;106.00;;;8.10;40.80;;;;;;4998273;28;20074;-79
2022/03/12 04:42:44;;;;;;;118.10;106.75;;;8.10;40.80;;;;;;4998072;28;20563;-80
2022/03/12 04:45:12;;;;;;;120.28;108.72;;;8.10;41.00;;;;;;4997761;28;20133;-80
2022/03/12 04:47:42;;;;;;;118.50;107.13;;;8.10;40.90;;;;;;4997945;28;20054;-79
2022/03/12 04:50:12;;;;;;;117.15;105.85;;;8.00;40.90;;;;;;4998076;28;20050;-80
2022/03/12 04:52:41;;;;;;;116.72;105.53;;;8.00;40.90;;;;;;4997977;28;20046;-80
2022/03/12 04:55:09;;;;;;;117.30;106.05;;;7.90;41.30;;;;;;4997760;28;20053;-79
2022/03/12 04:57:36;;;;;;;116.40;105.25;;;8.00;41.20;;;;;;4996851;28;20659;-79
2022/03/12 05:00:06;;;;;;;116.97;105.68;;;8.00;41.30;;;;;;4998036;28;20050;-80
2022/03/12 05:02:33;;;;;;;115.80;104.65;;;8.00;41.40;;;;;;4997968;28;20149;-80
2022/03/12 05:05:00;;;;;;;116.45;105.07;;;8.00;41.50;;;;;;4997595;28;20047;-80
2022/03/12 05:07:28;;;;;;;115.47;104.40;;;8.00;41.20;;;;;;4997617;28;20108;-80
2022/03/12 05:09:57;;;;;;;115.57;104.45;;;7.90;41.10;;;;;;4997520;28;20050;-80
2022/03/12 05:12:24;;;;;;;115.93;104.70;;;7.90;41.10;;;;;;4981313;28;20102;-79
2022/03/12 05:14:53;;;;;;;116.45;105.07;;;7.90;41.10;;;;;;5015211;28;20134;-79
2022/03/12 05:17:26;;;;;;;117.20;105.90;;;7.90;41.50;;;;;;4997436;28;20054;-80
2022/03/12 05:19:54;;;;;;;116.53;105.30;;;7.90;41.60;;;;;;4997377;28;20531;-80
2022/03/12 05:22:21;;;;;;;116.95;105.63;;;7.90;41.70;;;;;;5014936;28;20509;-80
2022/03/12 05:24:48;;;;;;;116.22;104.80;;;7.90;41.80;;;;;;4980741;28;20066;-80
2022/03/12 05:27:18;;;;;;;117.82;106.60;;;7.90;41.90;;;;;;5014786;28;20066;-80
2022/03/12 05:29:47;;;;;;;116.63;105.38;;;7.90;41.40;;;;;;4997016;28;20520;-80
2022/03/12 05:32:15;;;;;;;116.55;105.22;;;7.90;41.80;;;;;;4996270;28;20137;-79
2022/03/12 05:34:43;;;;;;;116.28;104.80;;;7.90;41.70;;;;;;4996630;28;20089;-80
2022/03/12 05:37:11;;;;;;;116.72;105.57;;;7.90;41.60;;;;;;4996943;28;20059;-79
2022/03/12 05:39:38;;;;;;;114.13;103.10;;;7.90;41.80;;;;;;4996914;28;20223;-80
2022/03/12 05:42:06;;;;;;;115.35;104.13;;;7.80;41.70;;;;;;4997022;28;20050;-80
2022/03/12 05:44:34;;;;;;;117.20;105.55;;;7.80;41.90;;;;;;4996818;28;20452;-79
2022/03/12 05:47:01;;;;;;;116.40;105.13;;;7.80;41.90;;;;;;4996620;28;20530;-80
2022/03/12 05:49:28;;;;;;;117.32;105.90;;;7.80;42.00;;;;;;4996783;28;20050;-79
2022/03/12 05:51:58;;;;;;;116.93;105.70;;;7.80;42.00;;;;;;5014355;28;20055;-80
2022/03/12 05:54:25;;;;;;;116.85;105.72;;;7.80;42.20;;;;;;4980718;28;20104;-80
2022/03/12 05:56:52;;;;;;;116.00;104.63;;;7.90;42.20;;;;;;5014257;28;20137;-80
2022/03/12 05:59:19;;;;;;;117.97;106.53;;;7.90;42.60;;;;;;4996198;28;20061;-80
2022/03/12 06:01:46;;;;;;;116.93;105.45;;;8.00;42.60;;;;;;4996159;28;20101;-79
2022/03/12 06:04:22;;;;;;;116.57;105.47;;;8.00;42.30;;;;;;4996507;28;20129;-80
2022/03/12 06:06:49;;;;;;;117.68;106.35;;;8.00;42.00;;;;;;4996539;28;20074;-80
2022/03/12 06:09:18;;;;;;;118.15;106.57;;;8.00;42.30;;;;;;5013959;28;20058;-81
2022/03/12 06:11:45;;;;;;;116.35;104.95;;;8.00;42.30;;;;;;4979817;28;21143;-80
2022/03/12 06:14:15;;;;;;;117.68;106.38;;;8.00;42.50;;;;;;5013833;28;20073;-80
2022/03/12 06:16:48;;;;;;;116.75;105.53;;;8.10;42.80;;;;;;4980283;28;20082;-80
2022/03/12 06:19:19;;;;;;;116.70;105.53;;;8.10;42.30;;;;;;4996206;28;20050;-80
2022/03/12 06:21:46;;;;;;;116.18;105.07;;;8.10;42.10;;;;;;4996455;28;20534;-80
2022/03/12 06:24:14;;;;;;;118.68;107.28;;;8.10;42.30;;;;;;4995945;28;20061;-79
2022/03/12 06:26:44;;;;;;;115.63;104.60;;;8.10;42.20;;;;;;4996670;28;20058;-80
2022/03/12 06:29:13;;;;;;;114.95;103.75;;;8.00;42.00;;;;;;4996316;28;20051;-79
2022/03/12 06:31:42;;;;;;;115.95;104.72;;;7.90;41.90;;;;;;4996493;28;20587;-80
2022/03/12 06:34:12;;;;;;;116.05;104.57;;;7.90;41.90;;;;;;4996630;28;20206;-79
2022/03/12 06:36:40;;;;;;;115.13;103.85;;;7.90;42.20;;;;;;4996121;28;20047;-80
2022/03/12 06:39:08;;;;;;;114.80;103.80;;;7.90;42.20;;;;;;4996048;28;20050;-79
2022/03/12 06:41:42;;;;;;;117.60;103.47;;;7.90;42.20;;;;;;4996358;28;20056;-79
2022/03/12 06:44:11;;;;;;;116.30;104.78;;;7.90;42.60;;;;;;4995180;28;20082;-80
2022/03/12 06:46:38;;;;;;;115.18;104.00;;;7.80;42.20;;;;;;4995762;28;20065;-80
2022/03/12 06:49:05;;;;;;;119.40;107.68;;;7.80;42.20;;;;;;4896626;28;20077;-80
2022/03/12 06:51:32;;;;;;;117.25;105.45;;;7.80;42.20;;;;;;4994268;28;20055;-80
2022/03/12 06:53:59;;;;;;;115.70;104.50;;;7.70;42.60;;;;;;4995200;28;20058;-80
2022/03/12 06:56:28;;;;;;;117.13;105.72;;;7.70;42.50;;;;;;4978575;28;20051;-80
2022/03/12 06:58:56;;;;;;;115.53;104.43;;;7.70;42.60;;;;;;4994519;28;20061;-80
2022/03/12 07:01:24;;;;;;;116.38;105.03;;;7.70;43.00;;;;;;4994633;28;20085;-80
2022/03/12 07:03:55;;;;;;;117.15;105.35;;;7.80;43.10;;;;;;4992518;28;20047;-80
2022/03/12 07:06:22;;;;;;;118.03;106.68;;;7.80;43.20;;;;;;4978552;28;20054;-80
2022/03/12 07:08:51;;;;;;;117.43;106.15;;;7.90;43.20;;;;;;5011777;28;20057;-80
2022/03/12 07:11:19;;;;;;;119.30;107.80;;;7.90;43.30;;;;;;4993753;28;20046;-80
2022/03/12 07:13:47;;;;;;;117.10;105.78;;;8.00;43.40;;;;;;4994051;28;20050;-80
2022/03/12 07:16:14;;;;;;;119.82;108.32;;;8.00;43.50;;;;;;4991282;28;20513;-80
2022/03/12 07:18:43;;;;;;;118.00;106.70;;;8.10;43.20;;;;;;4993488;28;20540;-80
2022/03/12 07:21:10;;;;;;;117.57;106.25;;;8.10;43.00;;;;;;4994320;28;20053;-80
2022/03/12 07:23:36;;;;;;;118.50;106.60;;;8.10;42.90;;;;;;4977242;28;20046;-80
2022/03/12 07:26:03;;;;;;;118.60;107.43;;;8.10;43.20;;;;;;4993245;28;20055;-80
2022/03/12 07:28:32;;;;;;;119.03;107.72;;;8.00;43.00;;;;;;5008647;28;20057;-80
2022/03/12 07:31:00;;;;;;;115.25;104.18;;;8.00;42.50;;;;;;4993997;28;20063;-81
2022/03/12 07:33:28;;;;;;;116.22;105.22;;;7.90;42.60;;;;;;4994379;28;20061;-82
2022/03/12 07:35:56;;;;;;;117.25;105.75;;;7.90;42.70;;;;;;4994199;28;20089;-82
2022/03/12 07:38:23;;;;;;;117.20;106.00;;;7.90;42.80;;;;;;4982384;28;20054;-81
2022/03/12 07:40:51;;;;;;;116.82;105.63;;;7.90;42.90;;;;;;5001196;28;20058;-81
2022/03/12 07:43:18;;;;;;;130.55;118.20;;;7.90;43.20;;;;;;4988534;28;20043;-82
2022/03/12 07:45:47;;;;;;;118.18;106.95;;;7.90;43.20;;;;;;4980143;28;20141;-80
2022/03/12 07:48:14;;;;;;;116.85;105.50;;;7.90;43.50;;;;;;4993637;28;20066;-82
2022/03/12 07:50:41;;;;;;;118.07;106.38;;;8.00;43.50;;;;;;4991553;28;20496;-80
2022/03/12 07:53:10;;;;;;;119.07;107.38;;;7.90;43.40;;;;;;4993594;28;20062;-80
2022/03/12 07:55:37;;;;;;;118.13;106.70;;;7.90;43.50;;;;;;4995364;28;20552;-80
2022/03/12 07:58:04;;;;;;;118.53;107.18;;;7.90;43.60;;;;;;4997420;28;20046;-80
2022/03/12 08:00:34;;;;;;;118.50;106.88;;;7.90;43.80;;;;;;4996807;28;20066;-80
2022/03/12 08:03:01;;;;;;;118.78;107.15;;;8.00;43.80;;;;;;5014868;28;20058;-80
2022/03/12 08:05:28;;;;;;;118.35;106.72;;;8.00;43.90;;;;;;5013392;28;20076;-80
2022/03/12 08:07:56;;;;;;;118.13;106.25;;;8.00;43.80;;;;;;4999795;28;20058;-80
2022/03/12 08:10:25;;;;;;;118.55;106.82;;;8.00;43.80;;;;;;4999499;28;20050;-76
2022/03/12 08:12:52;;;;;;;117.18;105.82;;;8.00;43.90;;;;;;4996602;28;20547;-80
2022/03/12 08:15:20;;;;;;;116.07;104.78;;;8.10;44.10;;;;;;4997633;28;20170;-79
2022/03/12 08:17:48;;;;;;;118.55;106.95;;;8.10;44.10;;;;;;4996967;28;20140;-80
2022/03/12 08:20:18;;;;;;;118.43;106.97;;;8.10;44.30;;;;;;4997028;28;20050;-81
2022/03/12 08:22:46;;;;;;;116.18;104.78;;;8.20;44.40;;;;;;4996313;28;20133;-80
2022/03/12 08:25:16;;;;;;;116.85;105.47;;;8.20;44.40;;;;;;5013494;28;20082;-79
2022/03/12 08:27:44;;;;;;;116.63;105.13;;;8.30;44.70;;;;;;4981163;28;20058;-80
2022/03/12 08:30:12;;;;;;;118.32;106.72;;;8.30;44.80;;;;;;4981405;28;20046;-80
2022/03/12 08:32:40;;;;;;;117.45;105.95;;;8.40;45.00;;;;;;4997311;28;20541;-80
2022/03/12 08:35:09;;;;;;;117.53;105.93;;;8.40;45.00;;;;;;4997619;28;20050;-80
2022/03/12 08:37:36;;;;;;;117.78;105.97;;;8.50;45.30;;;;;;4997006;28;20050;-80
2022/03/12 08:40:06;;;;;;;117.88;106.47;;;8.60;45.40;;;;;;4997593;28;20506;-80
2022/03/12 08:42:33;;;;;;;118.13;106.60;;;8.70;45.50;;;;;;4997281;28;20043;-80
2022/03/12 08:45:02;;;;;;;118.20;106.25;;;8.80;45.60;;;;;;4997262;28;20046;-80
2022/03/12 08:47:29;;;;;;;119.13;107.43;;;8.90;45.80;;;;;;5014906;28;20501;-80
2022/03/12 08:49:55;;;;;;;119.63;107.10;;;9.00;45.90;;;;;;4997325;28;20133;-80
2022/03/12 08:52:23;;;;;;;117.65;106.15;;;9.00;45.90;;;;;;4997196;28;20081;-80
2022/03/12 08:54:53;;;;;;;118.07;106.65;;;9.10;46.00;;;;;;5014801;28;20138;-80
2022/03/12 08:57:20;;;;;;;117.82;106.43;;;9.20;46.10;;;;;;4996868;28;20082;-80
2022/03/12 08:59:47;;;;;;;118.90;107.22;;;9.30;46.10;;;;;;4997068;28;20065;-80
2022/03/12 09:02:16;;;;;;;119.45;107.35;;;9.40;46.40;;;;;;4980556;28;20062;-80
2022/03/12 09:04:43;;;;;;;117.35;105.95;;;9.50;46.50;;;;;;4996980;28;20153;-80
2022/03/12 09:07:10;;;;;;;119.63;108.10;;;9.60;46.80;;;;;;4996328;28;20051;-79
2022/03/12 09:09:38;;;;;;;117.45;105.90;;;9.70;47.10;;;;;;4997167;28;20051;-81
2022/03/12 09:12:05;;;;;;;117.03;105.55;;;9.80;47.20;;;;;;4996406;28;20125;-80
2022/03/12 09:14:34;;;;;;;117.80;106.30;;;10.00;47.60;;;;;;4997497;28;20061;-80
2022/03/12 09:17:28;;;;;;;117.63;106.15;;;10.10;47.50;;;;;;4997079;28;20137;-80
2022/03/12 09:19:55;;;;;;;117.78;106.45;;;10.20;48.00;;;;;;5026717;23;20058;-80
2022/03/12 09:22:23;;;;;;;119.88;108.25;;;10.30;47.80;;;;;;4996193;28;20555;-80
2022/03/12 09:24:50;;;;;;;118.40;106.85;;;10.40;47.90;;;;;;4996987;28;20146;-80
2022/03/12 09:27:17;;;;;;;119.18;107.68;;;10.50;48.00;;;;;;4996057;28;20065;-80
2022/03/12 09:29:45;;;;;;;117.93;106.15;;;10.60;48.30;;;;;;4997384;28;20113;-80
2022/03/12 09:32:12;;;;;;;118.38;107.07;;;10.80;48.10;;;;;;4996098;28;20433;-80
2022/03/12 09:34:41;;;;;;;117.28;106.07;;;10.90;48.20;;;;;;4997642;28;20061;-80
2022/03/12 09:37:10;;;;;;;119.75;108.35;;;10.90;48.00;;;;;;4997159;28;20142;-81
2022/03/12 09:39:37;;;;;;;117.88;106.50;;;11.00;48.00;;;;;;4997269;28;20523;-80
2022/03/12 09:42:05;;;;;;;118.47;107.22;;;11.10;48.20;;;;;;4996875;28;20153;-81
2022/03/12 09:44:32;;;;;;;118.32;106.85;;;11.20;48.10;;;;;;4997197;28;20061;-81
2022/03/12 09:46:59;;;;;;;120.93;109.60;;;11.30;48.10;;;;;;4997016;28;20534;-80
2022/03/12 09:49:26;;;;;;;119.03;107.68;;;11.30;48.20;;;;;;5015101;28;20500;-81
2022/03/12 09:51:58;;;;;;;118.18;107.05;;;11.40;48.40;;;;;;4996653;28;20042;-80
2022/03/12 09:54:28;;;;;;;118.65;107.45;;;11.40;48.30;;;;;;5015052;28;20058;-79
2022/03/12 09:56:55;;;;;;;118.72;107.43;;;11.50;48.50;;;;;;4997208;28;20132;-79
2022/03/12 09:59:22;;;;;;;118.55;107.10;;;11.60;48.40;;;;;;4997044;28;20078;-79
2022/03/12 10:01:50;;;;;;;118.75;107.47;;;11.70;48.30;;;;;;4980965;28;20062;-79
2022/03/12 10:04:17;;;;;;;120.00;108.45;;;11.70;48.90;;;;;;4996582;28;20064;-79
2022/03/12 10:06:44;;;;;;;118.60;107.38;;;11.70;48.60;;;;;;5014872;28;20580;-79
2022/03/12 10:09:13;;;;;;;120.95;108.95;;;11.80;48.60;;;;;;4996880;28;20081;-79
2022/03/12 10:11:41;;;;;;;120.53;109.28;;;11.80;48.70;;;;;;4996364;28;20054;-80
2022/03/12 10:14:09;;;;;;;119.15;107.88;;;11.80;48.90;;;;;;4995869;28;20503;-79
2022/03/12 10:16:36;;;;;;;119.35;107.88;;;11.90;49.40;;;;;;4979463;28;20050;-79
2022/03/12 10:19:04;;;;;;;118.55;107.35;;;12.00;50.10;;;;;;4994562;28;20429;-79
2022/03/12 10:21:32;;;;;;;120.63;109.40;;;12.00;50.60;;;;;;4995882;28;20129;-79
2022/03/12 10:23:59;;;;;;;120.00;108.70;;;12.10;51.30;;;;;;4979539;28;20057;-79
2022/03/12 10:26:28;;;;;;;119.40;107.70;;;12.20;51.90;;;;;;4996024;28;20441;-80
2022/03/12 10:28:55;;;;;;;118.45;107.55;;;12.40;52.60;;;;;;4995148;28;20097;-82
2022/03/12 10:31:22;;;;;;;118.65;107.45;;;12.50;53.30;;;;;;4983720;28;20042;-81
2022/03/12 10:33:49;;;;;;;120.00;108.80;;;12.50;53.80;;;;;;5015374;28;20133;-81
2022/03/12 10:36:18;;;;;;;120.60;109.18;;;12.60;54.00;;;;;;5016105;28;20100;-81
2022/03/12 10:38:48;;;;;;;118.35;107.38;;;12.70;54.40;;;;;;5015919;28;20515;-81
2022/03/12 10:41:17;;;;;;;117.60;106.68;;;12.80;54.30;;;;;;5016134;28;20520;-76
2022/03/12 10:43:48;;;;;;;118.45;107.38;;;12.90;54.30;;;;;;5016355;28;20066;-77
2022/03/12 10:46:20;;;;;;;119.50;108.50;;;13.00;54.40;;;;;;5016300;28;20058;-76
2022/03/12 10:48:51;;;;;;;116.07;105.20;;;13.00;54.50;;;;;;5015780;28;20049;-76
2022/03/12 10:51:19;;;;;;;117.65;106.75;;;13.10;54.60;;;;;;5015491;28;20054;-77
2022/03/12 10:53:48;;;;;;;118.53;107.43;;;13.10;54.70;;;;;;5015982;28;20046;-76
2022/03/12 10:56:15;;;;;;;117.60;106.80;;;13.10;54.30;;;;;;5033621;28;20092;-76
2022/03/12 10:58:42;;;;;;;119.13;108.22;;;13.20;54.10;;;;;;5015637;28;20054;-77
2022/03/12 11:01:11;;;;;;;120.00;108.60;;;13.20;54.30;;;;;;5015386;28;20057;-76
2022/03/12 11:03:38;;;;;;;122.10;109.68;;;13.30;54.50;;;;;;5015314;28;20145;-76
2022/03/12 11:06:07;;;;;;;119.35;107.22;;;13.30;54.30;;;;;;5015804;28;20050;-77
2022/03/12 11:08:35;;;;;;;118.47;107.07;;;13.30;54.50;;;;;;5015479;28;20145;-76
2022/03/12 11:11:12;;;;;;;118.00;106.55;;;13.40;54.10;;;;;;5015659;28;20121;-76
2022/03/12 11:13:41;;;;;;;117.78;106.45;;;13.50;54.00;;;;;;5015562;28;20057;-76
2022/03/12 11:16:20;;;;;;;125.13;113.78;;;13.50;53.90;;;;;;5015296;28;20116;-76
2022/03/12 11:18:57;;;;;;;121.63;110.40;;;13.50;53.80;;;;;;5015701;28;20526;-78
2022/03/12 11:21:33;;;;;;;121.32;109.53;;;13.40;54.30;;;;;;5017388;28;20616;-77
2022/03/12 11:24:01;;;;;;;118.82;107.55;;;13.50;54.40;;;;;;5014948;28;20053;-77
2022/03/12 11:26:28;;;;;;;118.68;107.25;;;13.50;54.30;;;;;;4998317;28;20042;-79
2022/03/12 11:28:57;;;;;;;118.68;107.38;;;13.60;54.50;;;;;;5031871;28;20586;-82
2022/03/12 11:31:43;;;;;;;116.60;105.57;;;13.70;54.30;;;;;;5012912;28;20050;-82
2022/03/12 11:34:23;;;;;;;121.57;110.28;;;13.70;54.10;;;;;;4998255;28;20054;-82
2022/03/12 11:37:04;;;;;;;164.05;120.60;;;13.80;54.00;;;;;;4998458;28;20058;-82
2022/03/12 11:39:33;;;;;;;120.95;109.68;;;13.80;53.90;;;;;;4982020;28;20050;-82
2022/03/12 11:42:10;;;;;;;119.25;107.13;;;13.90;54.20;;;;;;4997999;28;20045;-83
2022/03/12 11:44:38;;;;;;;120.63;108.90;;;13.90;54.30;;;;;;4998072;28;20141;-83
2022/03/12 11:47:06;;;;;;;119.45;108.53;;;13.90;54.10;;;;;;4997954;28;20238;-82
2022/03/12 11:49:34;;;;;;;118.93;107.97;;;14.00;54.00;;;;;;4998395;28;20136;-82
2022/03/12 11:52:02;;;;;;;120.88;109.43;;;14.00;53.90;;;;;;4997719;28;20053;-82
2022/03/12 11:54:30;;;;;;;120.85;109.47;;;14.10;53.80;;;;;;4996186;28;20137;-78
2022/03/12 11:57:06;;;;;;;124.78;113.28;;;14.10;53.90;;;;;;5013658;28;20057;-78
2022/03/12 11:59:36;;;;;;;120.82;109.82;;;14.10;53.90;;;;;;4997226;28;20786;-78
2022/03/12 12:02:19;;;;;;;122.75;111.75;;;14.20;53.90;;;;;;5014605;28;20077;-80
2022/03/12 12:04:46;;;;;;;121.47;109.95;;;14.20;53.80;;;;;;4995051;28;20186;-79
2022/03/12 12:07:13;;;;;;;121.78;110.70;;;14.30;53.70;;;;;;4995094;28;20073;-78
2022/03/12 12:09:40;;;;;;;120.05;109.13;;;14.30;53.60;;;;;;4981754;28;20046;-78
2022/03/12 12:12:13;;;;;;;119.35;108.13;;;14.30;53.70;;;;;;4997923;28;20074;-77
2022/03/12 12:14:41;;;;;;;118.63;107.82;;;14.30;53.60;;;;;;5012682;28;20428;-79
2022/03/12 12:17:08;;;;;;;121.85;110.93;;;14.30;53.30;;;;;;4997165;28;20058;-77
2022/03/12 12:19:37;;;;;;;118.78;108.07;;;14.30;53.30;;;;;;4997733;28;20499;-77
2022/03/12 12:22:06;;;;;;;117.78;106.97;;;14.30;53.50;;;;;;4994224;28;20058;-79